createdAt,value
2023-01-31T00:01:38.700Z,3.67
2023-01-31T00:04:11.970Z,2.77
2023-01-31T00:06:43.626Z,2.70
2023-01-31T00:09:14.332Z,3.23
2023-01-31T00:11:40.984Z,2.60
2023-01-31T00:14:08.505Z,2.60
2023-01-31T00:16:38.385Z,2.43
2023-01-31T00:19:11.259Z,3.17
2023-01-31T00:21:38.093Z,4.07
2023-01-31T00:24:08.214Z,2.93
2023-01-31T00:26:44.111Z,3.97
2023-01-31T00:29:10.921Z,3.30
2023-01-31T00:31:37.866Z,3.27
2023-01-31T00:34:30.574Z,2.63
2023-01-31T00:36:57.232Z,3.10
2023-01-31T00:39:23.844Z,3.53
2023-01-31T00:41:50.437Z,3.20
2023-01-31T00:44:17.167Z,3.00
2023-01-31T00:46:43.963Z,3.37
2023-01-31T00:49:13.170Z,2.87
2023-01-31T00:51:39.926Z,3.40
2023-01-31T00:54:06.637Z,4.40
2023-01-31T00:56:33.957Z,3.53
2023-01-31T00:59:02.041Z,3.20
2023-01-31T01:01:32.282Z,2.70
2023-01-31T01:03:59.725Z,2.90
2023-01-31T01:06:27.375Z,3.10
2023-01-31T01:09:02.009Z,3.40
2023-01-31T01:11:30.712Z,3.73
2023-01-31T01:13:58.895Z,3.13
2023-01-31T01:16:31.705Z,3.33
2023-01-31T01:18:58.467Z,2.80
2023-01-31T01:21:27.492Z,3.00
2023-01-31T01:24:01.927Z,3.20
2023-01-31T01:26:31.060Z,4.57
2023-01-31T01:28:58.791Z,3.27
2023-01-31T01:31:32.494Z,4.00
2023-01-31T01:34:02.260Z,2.97
2023-01-31T01:36:29.447Z,2.40
2023-01-31T01:38:56.203Z,2.83
2023-01-31T01:41:23.905Z,3.10
2023-01-31T01:43:55.601Z,3.27
2023-01-31T01:46:36.475Z,3.10
2023-01-31T01:49:32.452Z,2.40
2023-01-31T01:52:04.483Z,3.00
2023-01-31T01:54:37.295Z,2.57
2023-01-31T01:57:05.485Z,2.77
2023-01-31T01:59:39.535Z,3.53
2023-01-31T02:02:06.315Z,2.43
2023-01-31T02:04:35.223Z,2.73
2023-01-31T02:07:08.470Z,2.30
2023-01-31T02:10:02.619Z,2.80
2023-01-31T02:12:47.130Z,2.87
2023-01-31T02:15:19.767Z,2.97
2023-01-31T02:17:47.386Z,2.90
2023-01-31T02:20:38.183Z,2.67
2023-01-31T02:23:14.232Z,2.93
2023-01-31T02:26:18.106Z,3.40
2023-01-31T02:28:59.091Z,2.70
2023-01-31T02:31:50.823Z,2.73
2023-01-31T02:34:42.523Z,3.30
2023-01-31T02:37:31.732Z,3.40
2023-01-31T02:40:36.737Z,2.50
2023-01-31T02:43:28.349Z,2.50
2023-01-31T02:46:11.484Z,2.63
2023-01-31T02:48:54.009Z,3.23
2023-01-31T02:51:35.715Z,2.60
2023-01-31T02:54:34.165Z,3.23
2023-01-31T02:57:02.959Z,2.80
2023-01-31T02:59:31.943Z,3.00
2023-01-31T03:02:01.297Z,3.37
2023-01-31T03:04:36.780Z,3.77
2023-01-31T03:07:17.423Z,3.00
2023-01-31T03:09:57.633Z,2.93
2023-01-31T03:12:51.703Z,4.50
2023-01-31T03:15:26.962Z,3.20
2023-01-31T03:18:12.806Z,3.30
2023-01-31T03:20:59.360Z,3.37
2023-01-31T03:23:38.671Z,3.00
2023-01-31T03:26:07.131Z,4.43
2023-01-31T03:28:40.125Z,3.33
2023-01-31T03:31:21.834Z,3.40
2023-01-31T03:33:52.228Z,3.37
2023-01-31T03:36:39.235Z,2.90
2023-01-31T03:39:44.879Z,2.63
2023-01-31T03:42:48.672Z,3.53
2023-01-31T03:45:20.855Z,3.73
2023-01-31T03:47:50.141Z,3.83
2023-01-31T03:50:23.304Z,3.50
2023-01-31T03:52:55.345Z,3.27
2023-01-31T03:55:30.761Z,3.20
2023-01-31T03:57:59.403Z,3.27
2023-01-31T04:00:34.454Z,2.90
2023-01-31T04:03:15.176Z,2.80
2023-01-31T04:05:42.081Z,3.03
2023-01-31T04:08:09.221Z,3.90
2023-01-31T04:10:35.977Z,3.63
2023-01-31T04:13:02.858Z,3.30
2023-01-31T04:15:32.203Z,3.40
2023-01-31T04:17:58.855Z,3.93
2023-01-31T04:20:25.585Z,3.17
2023-01-31T04:22:52.281Z,3.73
2023-01-31T04:25:19.284Z,3.43
2023-01-31T04:27:53.559Z,3.93
2023-01-31T04:30:20.219Z,3.60
2023-01-31T04:32:47.409Z,3.80
2023-01-31T04:35:14.184Z,4.30
2023-01-31T04:37:40.880Z,3.57
2023-01-31T04:40:08.711Z,5.20
2023-01-31T04:42:43.045Z,3.90
2023-01-31T04:45:12.946Z,4.33
2023-01-31T04:47:39.997Z,4.13
2023-01-31T04:50:10.664Z,3.90
2023-01-31T04:52:39.763Z,4.83
2023-01-31T04:55:13.982Z,4.30
2023-01-31T04:57:40.833Z,5.30
2023-01-31T05:00:11.170Z,4.80
2023-01-31T05:02:43.661Z,4.30
2023-01-31T05:05:13.428Z,4.70
2023-01-31T05:07:44.589Z,3.83
2023-01-31T05:10:18.345Z,4.07
2023-01-31T05:12:45.248Z,4.50
2023-01-31T05:15:11.932Z,4.60
2023-01-31T05:17:53.504Z,3.47
2023-01-31T05:20:20.715Z,4.10
2023-01-31T05:22:49.172Z,3.37
2023-01-31T05:25:19.223Z,4.00
2023-01-31T05:27:45.917Z,4.33
2023-01-31T05:30:13.047Z,3.80
2023-01-31T05:32:50.362Z,4.00
2023-01-31T05:35:17.700Z,3.70
2023-01-31T05:37:44.859Z,4.40
2023-01-31T05:40:17.874Z,4.40
2023-01-31T05:42:44.724Z,3.77
2023-01-31T05:45:12.444Z,4.80
2023-01-31T05:47:39.528Z,4.33
2023-01-31T05:50:15.177Z,4.33
2023-01-31T05:52:42.101Z,5.77
2023-01-31T05:55:11.967Z,4.30
2023-01-31T05:57:48.383Z,4.30
2023-01-31T06:00:15.835Z,4.40
2023-01-31T06:02:42.879Z,4.00
2023-01-31T06:05:18.874Z,4.90
2023-01-31T06:07:45.830Z,4.47
2023-01-31T06:10:13.836Z,4.97
2023-01-31T06:12:40.651Z,4.83
2023-01-31T06:15:11.043Z,4.20
2023-01-31T06:17:43.867Z,4.40
2023-01-31T06:20:11.037Z,4.60
2023-01-31T06:22:43.338Z,4.40
2023-01-31T06:25:10.434Z,4.57
2023-01-31T06:27:40.578Z,4.77
2023-01-31T06:30:12.441Z,5.73
2023-01-31T06:32:42.121Z,4.80
2023-01-31T06:35:11.766Z,5.37
2023-01-31T06:37:50.060Z,4.47
2023-01-31T06:40:16.816Z,5.03
2023-01-31T06:42:48.385Z,5.00
2023-01-31T06:45:14.975Z,5.67
2023-01-31T06:47:45.160Z,5.47
2023-01-31T06:50:12.435Z,5.87
2023-01-31T06:53:04.604Z,5.67
2023-01-31T06:55:31.495Z,5.40
2023-01-31T06:57:58.095Z,5.70
2023-01-31T07:00:25.774Z,5.60
2023-01-31T07:03:01.866Z,6.27
2023-01-31T07:05:28.765Z,5.33
2023-01-31T07:07:55.526Z,5.93
2023-01-31T07:10:35.114Z,6.63
2023-01-31T07:13:04.895Z,6.77
2023-01-31T07:15:31.575Z,5.97
2023-01-31T07:18:01.910Z,7.27
2023-01-31T07:20:28.695Z,8.03
2023-01-31T07:22:59.029Z,7.60
2023-01-31T07:25:44.766Z,7.40
2023-01-31T07:28:36.731Z,7.00
2023-01-31T07:31:10.940Z,8.03
2023-01-31T07:33:46.415Z,7.90
2023-01-31T07:36:15.405Z,7.93
2023-01-31T07:38:42.834Z,7.43
2023-01-31T07:45:31.028Z,8.33
2023-01-31T07:48:12.920Z,8.67
2023-01-31T07:50:39.561Z,8.40
2023-01-31T07:53:15.568Z,9.57
2023-01-31T07:55:42.352Z,8.80
2023-01-31T07:58:11.251Z,8.30
2023-01-31T08:01:05.356Z,9.03
2023-01-31T08:03:35.246Z,7.63
2023-01-31T08:06:04.477Z,8.87
2023-01-31T08:08:37.271Z,8.30
2023-01-31T08:11:07.283Z,8.40
2023-01-31T08:13:37.723Z,8.60
2023-01-31T08:16:12.025Z,9.70
2023-01-31T08:18:39.469Z,9.00
2023-01-31T08:21:09.987Z,9.17
2023-01-31T08:23:41.131Z,8.60
2023-01-31T08:26:10.966Z,9.83
2023-01-31T08:28:38.523Z,8.87
2023-01-31T08:31:09.776Z,8.50
2023-01-31T08:33:38.214Z,9.90
2023-01-31T08:36:24.407Z,8.27
2023-01-31T08:38:51.417Z,9.70
2023-01-31T08:41:25.358Z,9.90
2023-01-31T08:43:56.644Z,10.00
2023-01-31T08:46:33.727Z,10.73
2023-01-31T08:49:01.728Z,9.37
2023-01-31T08:51:28.993Z,10.90
2023-01-31T08:53:55.771Z,9.97
2023-01-31T08:56:26.491Z,10.37
2023-01-31T08:58:54.539Z,9.30
2023-01-31T09:01:22.273Z,11.10
2023-01-31T09:03:55.239Z,9.90
2023-01-31T09:06:22.932Z,10.60
2023-01-31T09:08:49.526Z,10.60
2023-01-31T09:11:18.984Z,10.50
2023-01-31T09:13:47.231Z,10.10
2023-01-31T09:16:17.206Z,10.37
2023-01-31T09:18:43.951Z,10.67
2023-01-31T09:21:16.293Z,8.97
2023-01-31T09:23:53.873Z,10.50
2023-01-31T09:26:20.534Z,8.17
2023-01-31T09:28:47.220Z,10.13
2023-01-31T09:31:22.017Z,9.20
2023-01-31T09:34:00.307Z,8.53
2023-01-31T09:36:34.859Z,9.40
2023-01-31T09:39:01.630Z,9.30
2023-01-31T09:41:49.423Z,8.83
2023-01-31T09:44:31.840Z,9.60
2023-01-31T09:47:28.477Z,9.50
2023-01-31T09:50:00.649Z,9.33
2023-01-31T09:52:32.498Z,7.73
2023-01-31T09:58:57.699Z,9.00
2023-01-31T10:01:27.431Z,8.03
2023-01-31T10:04:22.893Z,8.37
2023-01-31T10:06:55.073Z,9.40
2023-01-31T10:09:36.030Z,9.53
2023-01-31T10:12:19.581Z,9.03
2023-01-31T10:14:50.477Z,9.67
2023-01-31T10:17:22.395Z,8.27
2023-01-31T10:20:13.536Z,9.13
2023-01-31T10:23:02.422Z,9.40
2023-01-31T10:25:40.379Z,10.40
2023-01-31T10:28:15.668Z,8.70
2023-01-31T10:30:58.700Z,9.80
2023-01-31T10:33:37.128Z,8.87
2023-01-31T10:36:27.993Z,9.60
2023-01-31T10:39:00.772Z,9.23
2023-01-31T10:41:59.704Z,8.60
2023-01-31T10:44:47.602Z,9.87
2023-01-31T10:47:15.978Z,9.97
2023-01-31T10:49:50.296Z,9.90
2023-01-31T10:52:25.677Z,9.53
2023-01-31T10:55:24.061Z,9.63
2023-01-31T10:57:51.973Z,10.37
2023-01-31T11:00:24.406Z,9.37
2023-01-31T11:02:53.378Z,9.30
2023-01-31T11:05:22.501Z,10.77
2023-01-31T11:11:11.151Z,10.77
2023-01-31T11:13:44.569Z,10.70
2023-01-31T11:16:12.340Z,10.20
2023-01-31T11:18:45.936Z,10.90
2023-01-31T11:21:38.129Z,9.90
2023-01-31T11:27:45.863Z,10.00
2023-01-31T11:30:28.026Z,9.83
2023-01-31T11:32:58.451Z,10.00
2023-01-31T11:35:42.862Z,11.33
2023-01-31T11:38:14.384Z,11.80
2023-01-31T11:40:47.559Z,9.73
2023-01-31T11:43:21.463Z,10.50
2023-01-31T11:46:23.209Z,9.77
2023-01-31T11:51:54.703Z,10.07
2023-01-31T11:54:31.431Z,11.27
2023-01-31T11:57:11.520Z,10.20
2023-01-31T11:59:38.406Z,9.83
2023-01-31T12:02:46.157Z,11.13
2023-01-31T12:05:17.599Z,10.00
2023-01-31T12:07:53.357Z,10.73
2023-01-31T12:10:42.770Z,11.77
2023-01-31T12:13:27.928Z,10.70
2023-01-31T12:16:03.292Z,11.83
2023-01-31T12:18:59.244Z,11.77
2023-01-31T12:21:40.369Z,12.50
2023-01-31T12:24:34.832Z,13.60
2023-01-31T12:27:04.481Z,12.87
2023-01-31T12:29:54.990Z,13.70
2023-01-31T12:32:28.763Z,13.40
2023-01-31T12:35:14.084Z,14.40
2023-01-31T12:37:57.963Z,14.53
2023-01-31T12:40:52.631Z,15.00
2023-01-31T12:43:57.104Z,14.70
2023-01-31T12:46:29.407Z,14.10
2023-01-31T12:49:10.421Z,15.43
2023-01-31T12:51:42.853Z,15.60
2023-01-31T12:54:24.685Z,14.20
2023-01-31T12:57:30.479Z,14.60
2023-01-31T13:00:12.388Z,15.23
2023-01-31T13:02:54.315Z,15.20
2023-01-31T13:05:53.293Z,16.07
2023-01-31T13:08:29.241Z,15.73
2023-01-31T13:15:28.048Z,14.43
2023-01-31T13:17:59.399Z,14.00
2023-01-31T13:20:40.083Z,13.67
2023-01-31T13:23:12.803Z,13.97
2023-01-31T13:25:48.856Z,15.20
2023-01-31T13:28:21.900Z,13.20
2023-01-31T13:31:11.259Z,12.33
2023-01-31T13:34:22.604Z,12.80
2023-01-31T13:36:53.091Z,13.77
2023-01-31T13:39:46.410Z,13.70
2023-01-31T13:45:48.599Z,10.73
2023-01-31T13:48:52.459Z,12.30
2023-01-31T13:52:09.362Z,11.90
2023-01-31T13:54:41.640Z,10.53
2023-01-31T13:57:31.676Z,10.87
2023-01-31T14:00:34.051Z,9.70
2023-01-31T14:03:13.314Z,10.40
2023-01-31T14:05:43.479Z,10.03
2023-01-31T14:08:47.500Z,10.03
2023-01-31T14:11:14.316Z,10.00
2023-01-31T14:13:51.058Z,9.87
2023-01-31T14:16:38.849Z,10.63
2023-01-31T14:20:52.381Z,9.63
2023-01-31T14:27:01.164Z,8.50
2023-01-31T14:29:27.979Z,8.80
2023-01-31T14:32:42.365Z,9.10
2023-01-31T14:43:18.833Z,8.70
2023-01-31T14:45:58.997Z,9.33
2023-01-31T14:48:47.244Z,9.70
2023-01-31T14:51:16.919Z,8.90
2023-01-31T14:54:33.442Z,10.60
2023-01-31T15:01:03.321Z,10.37
2023-01-31T15:03:49.997Z,11.10
2023-01-31T15:06:33.740Z,11.70
2023-01-31T15:09:20.140Z,12.20
2023-01-31T15:12:43.605Z,12.23
2023-01-31T15:15:23.867Z,10.97
2023-01-31T15:17:54.132Z,11.40
2023-01-31T15:20:47.234Z,12.30
2023-01-31T15:23:53.050Z,11.70
2023-01-31T15:31:04.375Z,9.77
2023-01-31T15:34:21.397Z,10.57
2023-01-31T15:45:31.044Z,8.47
2023-01-31T15:56:44.032Z,11.17
2023-01-31T15:59:32.723Z,9.87
2023-01-31T16:02:11.590Z,10.83
2023-01-31T16:04:40.319Z,10.57
2023-01-31T16:07:07.062Z,11.37
2023-01-31T16:10:12.094Z,11.37
2023-01-31T16:12:48.456Z,10.20
2023-01-31T16:15:22.211Z,10.20
2023-01-31T16:18:02.631Z,10.77
2023-01-31T16:20:50.059Z,10.93
2023-01-31T16:23:33.990Z,9.17
2023-01-31T16:26:23.746Z,11.10
2023-01-31T16:28:57.117Z,8.97
2023-01-31T16:31:36.499Z,5.07
2023-01-31T16:34:05.720Z,3.60
2023-01-31T16:36:50.456Z,3.10
2023-01-31T16:39:30.045Z,2.47
2023-01-31T16:41:58.353Z,1.80
2023-01-31T16:44:34.862Z,2.37
2023-01-31T16:47:02.055Z,2.10
2023-01-31T16:49:31.603Z,2.33
2023-01-31T16:52:16.269Z,2.60
2023-01-31T16:54:53.842Z,2.80
2023-01-31T16:57:38.307Z,4.00
2023-01-31T17:00:27.080Z,3.60
2023-01-31T17:02:58.725Z,3.20
2023-01-31T17:05:40.968Z,2.37
2023-01-31T17:08:19.679Z,2.70
2023-01-31T17:10:49.558Z,2.20
2023-01-31T17:13:19.070Z,2.20
2023-01-31T17:15:45.758Z,2.47
2023-01-31T17:18:12.655Z,2.70
2023-01-31T17:20:44.448Z,3.37
2023-01-31T17:23:11.870Z,3.57
2023-01-31T17:25:38.650Z,3.67
2023-01-31T17:28:06.270Z,4.00
2023-01-31T17:30:33.637Z,4.17
2023-01-31T17:33:00.796Z,4.37
2023-01-31T17:35:35.712Z,3.63
2023-01-31T17:38:03.138Z,5.20
2023-01-31T17:40:30.097Z,4.70
2023-01-31T17:43:02.767Z,4.70
2023-01-31T17:45:29.501Z,6.20
2023-01-31T17:47:56.203Z,4.13
2023-01-31T17:50:30.128Z,4.83
2023-01-31T17:52:57.102Z,5.10
2023-01-31T17:55:25.188Z,3.70
2023-01-31T17:57:52.092Z,4.00
2023-01-31T18:00:25.302Z,3.70
2023-01-31T18:02:53.181Z,4.53
2023-01-31T18:05:30.290Z,3.70
2023-01-31T18:08:05.602Z,14.37
2023-01-31T18:10:40.210Z,25.73
2023-01-31T18:13:07.670Z,11.80
2023-01-31T18:15:36.277Z,4.93
2023-01-31T18:18:10.508Z,3.77
2023-01-31T18:20:38.783Z,3.70
2023-01-31T18:23:06.576Z,4.47
2023-01-31T18:25:54.325Z,5.57
2023-01-31T18:28:24.305Z,4.43
2023-01-31T18:30:51.555Z,3.80
2023-01-31T18:33:18.370Z,4.60
2023-01-31T18:35:44.951Z,5.30
2023-01-31T18:38:13.511Z,6.13
2023-01-31T18:40:46.054Z,4.80
2023-01-31T18:43:13.096Z,3.27
2023-01-31T18:45:39.893Z,3.90
2023-01-31T18:48:15.643Z,3.97
2023-01-31T18:50:42.503Z,3.57
2023-01-31T18:53:09.683Z,4.87
2023-01-31T18:55:45.722Z,4.10
2023-01-31T18:58:12.425Z,3.97
2023-01-31T19:00:39.129Z,3.70
2023-01-31T19:03:05.816Z,3.73
2023-01-31T19:08:52.422Z,3.13
2023-01-31T19:11:20.758Z,4.27
2023-01-31T19:13:47.488Z,3.87
2023-01-31T19:16:20.788Z,4.20
2023-01-31T19:18:48.705Z,5.43
2023-01-31T19:21:24.035Z,4.80
2023-01-31T19:23:53.937Z,5.53
2023-01-31T19:26:27.782Z,6.53
2023-01-31T19:28:55.664Z,7.17
2023-01-31T19:31:24.022Z,3.50
2023-01-31T19:34:02.356Z,5.17
2023-01-31T19:36:31.761Z,3.20
2023-01-31T19:39:04.386Z,4.73
2023-01-31T19:41:33.988Z,4.20
2023-01-31T19:44:04.361Z,4.40
2023-01-31T19:46:33.003Z,4.47
2023-01-31T19:49:05.069Z,4.20
2023-01-31T19:51:35.594Z,3.70
2023-01-31T19:54:32.284Z,4.47
2023-01-31T19:56:59.007Z,3.47
2023-01-31T19:59:25.645Z,4.80
2023-01-31T20:02:12.706Z,4.53
2023-01-31T20:04:48.449Z,3.60
2023-01-31T20:07:15.173Z,3.97
2023-01-31T20:09:41.887Z,3.67
2023-01-31T20:12:17.584Z,3.67
2023-01-31T20:14:44.403Z,3.93
2023-01-31T20:17:11.279Z,3.03
2023-01-31T20:19:48.023Z,4.20
2023-01-31T20:22:15.645Z,3.47
2023-01-31T20:24:42.366Z,3.70
2023-01-31T20:29:49.670Z,3.97
2023-01-31T20:32:17.903Z,3.40
2023-01-31T20:34:48.235Z,3.90
2023-01-31T20:37:17.822Z,3.60
2023-01-31T20:39:44.569Z,3.73
2023-01-31T20:42:18.866Z,3.40
2023-01-31T20:44:45.633Z,3.73
2023-01-31T20:47:12.365Z,3.30
2023-01-31T20:49:52.076Z,3.60
2023-01-31T20:52:21.366Z,2.87
2023-01-31T20:54:48.364Z,3.60
2023-01-31T20:57:24.798Z,3.50
2023-01-31T20:59:51.935Z,3.70
2023-01-31T21:02:19.062Z,3.43
2023-01-31T21:04:54.726Z,3.60
2023-01-31T21:07:21.507Z,3.63
2023-01-31T21:09:48.169Z,4.87
2023-01-31T21:12:24.094Z,5.10
2023-01-31T21:15:16.536Z,5.90
2023-01-31T21:17:53.698Z,4.00
2023-01-31T21:20:24.777Z,3.80
2023-01-31T21:22:51.643Z,5.10
2023-01-31T21:25:26.262Z,3.63
2023-01-31T21:28:06.347Z,4.07
2023-01-31T21:30:33.277Z,3.60
2023-01-31T21:33:00.055Z,3.90
2023-01-31T21:35:26.920Z,3.37
2023-01-31T21:37:53.665Z,3.63
2023-01-31T21:40:29.924Z,4.20
2023-01-31T21:42:56.665Z,3.90
2023-01-31T21:45:41.583Z,4.40
2023-01-31T21:48:36.936Z,4.07
2023-01-31T21:51:07.887Z,3.87
2023-01-31T21:53:34.851Z,3.43
2023-01-31T21:56:09.357Z,3.40
2023-01-31T21:58:36.849Z,3.90
2023-01-31T22:01:09.111Z,3.50
2023-01-31T22:03:45.376Z,2.93
2023-01-31T22:06:13.463Z,3.30
2023-01-31T22:09:03.829Z,3.57
2023-01-31T22:11:33.269Z,3.70
2023-01-31T22:14:01.746Z,3.87
2023-01-31T22:16:28.473Z,3.47
2023-01-31T22:19:04.813Z,3.80
2023-01-31T22:21:34.506Z,4.27
2023-01-31T22:24:11.515Z,4.10
2023-01-31T22:26:41.573Z,4.00
2023-01-31T22:29:10.594Z,3.80
2023-01-31T22:31:44.838Z,4.00
2023-01-31T22:34:14.048Z,4.47
2023-01-31T22:36:40.979Z,4.17
2023-01-31T22:39:16.099Z,5.20
2023-01-31T22:41:44.650Z,3.40
2023-01-31T22:44:11.365Z,3.73
2023-01-31T22:46:40.641Z,3.67
2023-01-31T22:49:07.371Z,4.50
2023-01-31T22:51:34.022Z,3.37
2023-01-31T22:54:00.627Z,4.53
2023-01-31T22:56:30.290Z,4.20
2023-01-31T22:59:06.586Z,4.00
2023-01-31T23:01:42.788Z,3.93
2023-01-31T23:04:10.825Z,3.77
2023-01-31T23:06:38.110Z,3.90
2023-01-31T23:09:05.503Z,3.57
2023-01-31T23:11:32.156Z,3.30
2023-01-31T23:13:59.013Z,3.67
2023-01-31T23:16:46.282Z,4.00
2023-01-31T23:19:13.119Z,3.40
2023-01-31T23:21:42.749Z,3.47
2023-01-31T23:24:23.130Z,4.13
2023-01-31T23:27:03.166Z,3.90
2023-01-31T23:29:29.969Z,4.23
2023-01-31T23:31:56.721Z,3.33
2023-01-31T23:34:34.035Z,4.00
2023-01-31T23:37:00.823Z,3.37
2023-01-31T23:39:27.469Z,3.70
2023-01-31T23:41:54.113Z,4.00
2023-01-31T23:44:20.820Z,4.73
2023-01-31T23:46:49.377Z,4.10
2023-01-31T23:49:16.035Z,3.90
2023-01-31T23:51:42.749Z,4.00
2023-01-31T23:54:10.491Z,4.50
2023-01-31T23:56:37.217Z,4.40
2023-01-31T23:59:07.285Z,4.00
